sensor_id;sensor_type;location;lat;lon;timestamp;P1;durP1;ratioP1;P2;durP2;ratioP2
75016;SDS011;63577;39.766;2.720;2023-07-31T00:02:14;9.40;;;5.10;;
75016;SDS011;63577;39.766;2.720;2023-07-31T00:04:39;7.80;;;4.30;;
75016;SDS011;63577;39.766;2.720;2023-07-31T00:07:05;7.50;;;4.10;;
75016;SDS011;63577;39.766;2.720;2023-07-31T00:09:32;8.10;;;4.40;;
75016;SDS011;63577;39.766;2.720;2023-07-31T00:11:57;10.70;;;4.90;;
75016;SDS011;63577;39.766;2.720;2023-07-31T00:14:22;8.70;;;4.20;;
75016;SDS011;63577;39.766;2.720;2023-07-31T00:16:48;7.80;;;4.30;;
75016;SDS011;63577;39.766;2.720;2023-07-31T00:19:13;8.90;;;4.30;;
75016;SDS011;63577;39.766;2.720;2023-07-31T00:21:38;6.40;;;4.20;;
75016;SDS011;63577;39.766;2.720;2023-07-31T00:24:04;8.20;;;4.90;;
75016;SDS011;63577;39.766;2.720;2023-07-31T00:26:29;8.60;;;5.00;;
75016;SDS011;63577;39.766;2.720;2023-07-31T00:28:54;7.10;;;4.10;;
75016;SDS011;63577;39.766;2.720;2023-07-31T00:31:20;10.30;;;4.70;;
75016;SDS011;63577;39.766;2.720;2023-07-31T00:33:45;7.50;;;5.00;;
75016;SDS011;63577;39.766;2.720;2023-07-31T00:36:10;8.70;;;4.50;;
75016;SDS011;63577;39.766;2.720;2023-07-31T00:38:36;9.00;;;4.20;;
75016;SDS011;63577;39.766;2.720;2023-07-31T00:41:01;9.70;;;4.40;;
75016;SDS011;63577;39.766;2.720;2023-07-31T00:43:26;9.60;;;4.40;;
75016;SDS011;63577;39.766;2.720;2023-07-31T00:45:52;7.40;;;4.40;;
75016;SDS011;63577;39.766;2.720;2023-07-31T00:48:17;8.80;;;5.00;;
75016;SDS011;63577;39.766;2.720;2023-07-31T00:50:42;8.30;;;4.70;;
75016;SDS011;63577;39.766;2.720;2023-07-31T00:53:08;10.30;;;5.20;;
75016;SDS011;63577;39.766;2.720;2023-07-31T00:55:33;8.70;;;5.10;;
75016;SDS011;63577;39.766;2.720;2023-07-31T00:57:59;8.60;;;4.60;;
75016;SDS011;63577;39.766;2.720;2023-07-31T01:00:24;8.50;;;4.70;;
75016;SDS011;63577;39.766;2.720;2023-07-31T01:02:50;9.10;;;4.30;;
75016;SDS011;63577;39.766;2.720;2023-07-31T01:05:17;8.20;;;4.50;;
75016;SDS011;63577;39.766;2.720;2023-07-31T01:08:04;8.40;;;4.30;;
75016;SDS011;63577;39.766;2.720;2023-07-31T01:10:34;8.30;;;4.90;;
75016;SDS011;63577;39.766;2.720;2023-07-31T01:13:00;9.20;;;5.20;;
75016;SDS011;63577;39.766;2.720;2023-07-31T01:15:27;9.20;;;5.10;;
75016;SDS011;63577;39.766;2.720;2023-07-31T01:17:52;8.00;;;4.20;;
75016;SDS011;63577;39.766;2.720;2023-07-31T01:20:21;9.20;;;5.10;;
75016;SDS011;63577;39.766;2.720;2023-07-31T01:28:04;9.20;;;4.90;;
75016;SDS011;63577;39.766;2.720;2023-07-31T01:30:34;8.20;;;4.80;;
75016;SDS011;63577;39.766;2.720;2023-07-31T01:33:02;9.50;;;5.40;;
75016;SDS011;63577;39.766;2.720;2023-07-31T01:35:33;9.00;;;4.40;;
75016;SDS011;63577;39.766;2.720;2023-07-31T01:37:58;9.60;;;4.90;;
75016;SDS011;63577;39.766;2.720;2023-07-31T01:40:24;9.40;;;4.80;;
75016;SDS011;63577;39.766;2.720;2023-07-31T01:42:49;9.20;;;4.60;;
75016;SDS011;63577;39.766;2.720;2023-07-31T01:45:14;8.70;;;4.30;;
75016;SDS011;63577;39.766;2.720;2023-07-31T01:47:40;8.20;;;5.30;;
75016;SDS011;63577;39.766;2.720;2023-07-31T01:50:05;9.00;;;4.60;;
75016;SDS011;63577;39.766;2.720;2023-07-31T01:52:31;10.60;;;4.20;;
75016;SDS011;63577;39.766;2.720;2023-07-31T01:54:56;9.00;;;5.10;;
75016;SDS011;63577;39.766;2.720;2023-07-31T01:57:21;8.80;;;5.00;;
75016;SDS011;63577;39.766;2.720;2023-07-31T01:59:46;7.90;;;4.40;;
75016;SDS011;63577;39.766;2.720;2023-07-31T02:02:12;9.40;;;5.20;;
75016;SDS011;63577;39.766;2.720;2023-07-31T02:04:38;11.30;;;5.50;;
75016;SDS011;63577;39.766;2.720;2023-07-31T02:07:04;7.50;;;5.40;;
75016;SDS011;63577;39.766;2.720;2023-07-31T02:09:30;9.60;;;6.20;;
75016;SDS011;63577;39.766;2.720;2023-07-31T02:11:55;8.40;;;5.10;;
75016;SDS011;63577;39.766;2.720;2023-07-31T02:14:20;10.40;;;5.70;;
75016;SDS011;63577;39.766;2.720;2023-07-31T02:16:46;9.40;;;5.40;;
75016;SDS011;63577;39.766;2.720;2023-07-31T02:19:11;10.70;;;5.10;;
75016;SDS011;63577;39.766;2.720;2023-07-31T02:21:36;9.60;;;4.80;;
75016;SDS011;63577;39.766;2.720;2023-07-31T02:24:02;9.40;;;4.80;;
75016;SDS011;63577;39.766;2.720;2023-07-31T02:26:27;9.20;;;5.30;;
75016;SDS011;63577;39.766;2.720;2023-07-31T02:28:52;8.40;;;4.80;;
75016;SDS011;63577;39.766;2.720;2023-07-31T02:31:18;7.50;;;5.10;;
75016;SDS011;63577;39.766;2.720;2023-07-31T02:33:43;8.20;;;5.00;;
75016;SDS011;63577;39.766;2.720;2023-07-31T02:36:08;9.30;;;4.50;;
75016;SDS011;63577;39.766;2.720;2023-07-31T02:38:34;7.50;;;4.30;;
75016;SDS011;63577;39.766;2.720;2023-07-31T02:40:59;11.20;;;4.80;;
75016;SDS011;63577;39.766;2.720;2023-07-31T02:43:24;10.00;;;4.90;;
75016;SDS011;63577;39.766;2.720;2023-07-31T02:45:53;8.30;;;4.60;;
75016;SDS011;63577;39.766;2.720;2023-07-31T02:48:18;8.50;;;4.50;;
75016;SDS011;63577;39.766;2.720;2023-07-31T02:50:44;8.90;;;4.60;;
75016;SDS011;63577;39.766;2.720;2023-07-31T02:53:10;9.30;;;4.70;;
75016;SDS011;63577;39.766;2.720;2023-07-31T02:55:35;10.20;;;5.00;;
75016;SDS011;63577;39.766;2.720;2023-07-31T02:58:00;7.50;;;4.80;;
75016;SDS011;63577;39.766;2.720;2023-07-31T03:00:26;8.40;;;5.20;;
75016;SDS011;63577;39.766;2.720;2023-07-31T03:02:51;9.20;;;4.80;;
75016;SDS011;63577;39.766;2.720;2023-07-31T03:05:16;8.70;;;4.90;;
75016;SDS011;63577;39.766;2.720;2023-07-31T03:07:42;8.50;;;4.70;;
75016;SDS011;63577;39.766;2.720;2023-07-31T03:10:07;9.40;;;4.90;;
75016;SDS011;63577;39.766;2.720;2023-07-31T03:12:33;8.50;;;4.70;;
75016;SDS011;63577;39.766;2.720;2023-07-31T03:14:58;8.80;;;4.70;;
75016;SDS011;63577;39.766;2.720;2023-07-31T03:17:23;11.80;;;5.20;;
75016;SDS011;63577;39.766;2.720;2023-07-31T03:19:49;8.00;;;4.10;;
75016;SDS011;63577;39.766;2.720;2023-07-31T03:22:14;9.60;;;4.90;;
75016;SDS011;63577;39.766;2.720;2023-07-31T03:24:39;8.30;;;4.40;;
75016;SDS011;63577;39.766;2.720;2023-07-31T03:27:05;8.10;;;4.60;;
75016;SDS011;63577;39.766;2.720;2023-07-31T03:29:30;7.90;;;5.00;;
75016;SDS011;63577;39.766;2.720;2023-07-31T03:31:55;8.90;;;5.20;;
75016;SDS011;63577;39.766;2.720;2023-07-31T03:34:21;9.00;;;5.40;;
75016;SDS011;63577;39.766;2.720;2023-07-31T03:36:46;8.20;;;5.40;;
75016;SDS011;63577;39.766;2.720;2023-07-31T03:39:11;8.80;;;5.20;;
75016;SDS011;63577;39.766;2.720;2023-07-31T03:41:37;10.80;;;5.50;;
75016;SDS011;63577;39.766;2.720;2023-07-31T03:44:02;10.10;;;4.60;;
75016;SDS011;63577;39.766;2.720;2023-07-31T03:46:27;10.50;;;4.50;;
75016;SDS011;63577;39.766;2.720;2023-07-31T03:48:53;8.20;;;4.80;;
75016;SDS011;63577;39.766;2.720;2023-07-31T03:51:18;9.20;;;4.90;;
75016;SDS011;63577;39.766;2.720;2023-07-31T03:53:44;9.60;;;4.80;;
75016;SDS011;63577;39.766;2.720;2023-07-31T03:56:09;11.20;;;5.30;;
75016;SDS011;63577;39.766;2.720;2023-07-31T03:58:35;8.80;;;5.00;;
75016;SDS011;63577;39.766;2.720;2023-07-31T04:01:02;7.80;;;4.70;;
75016;SDS011;63577;39.766;2.720;2023-07-31T04:03:27;7.40;;;4.90;;
75016;SDS011;63577;39.766;2.720;2023-07-31T04:05:54;7.00;;;4.70;;
75016;SDS011;63577;39.766;2.720;2023-07-31T04:08:19;9.10;;;5.30;;
75016;SDS011;63577;39.766;2.720;2023-07-31T04:10:44;7.90;;;5.50;;
75016;SDS011;63577;39.766;2.720;2023-07-31T04:13:10;8.20;;;4.90;;
75016;SDS011;63577;39.766;2.720;2023-07-31T04:15:35;10.30;;;5.20;;
75016;SDS011;63577;39.766;2.720;2023-07-31T04:18:00;10.60;;;5.40;;
75016;SDS011;63577;39.766;2.720;2023-07-31T04:20:26;8.00;;;5.30;;
75016;SDS011;63577;39.766;2.720;2023-07-31T04:22:51;9.80;;;5.80;;
75016;SDS011;63577;39.766;2.720;2023-07-31T04:25:16;8.90;;;5.20;;
75016;SDS011;63577;39.766;2.720;2023-07-31T04:27:42;8.60;;;4.70;;
75016;SDS011;63577;39.766;2.720;2023-07-31T04:30:07;9.90;;;5.40;;
75016;SDS011;63577;39.766;2.720;2023-07-31T04:32:33;9.90;;;4.60;;
75016;SDS011;63577;39.766;2.720;2023-07-31T04:35:00;10.30;;;5.50;;
75016;SDS011;63577;39.766;2.720;2023-07-31T04:37:25;10.10;;;5.30;;
75016;SDS011;63577;39.766;2.720;2023-07-31T04:39:51;8.00;;;4.50;;
75016;SDS011;63577;39.766;2.720;2023-07-31T04:42:16;9.30;;;5.60;;
75016;SDS011;63577;39.766;2.720;2023-07-31T04:44:41;10.00;;;5.20;;
75016;SDS011;63577;39.766;2.720;2023-07-31T04:47:07;9.60;;;4.90;;
75016;SDS011;63577;39.766;2.720;2023-07-31T04:49:32;9.10;;;4.90;;
75016;SDS011;63577;39.766;2.720;2023-07-31T04:51:58;10.70;;;5.20;;
75016;SDS011;63577;39.766;2.720;2023-07-31T04:54:23;10.80;;;5.00;;
75016;SDS011;63577;39.766;2.720;2023-07-31T04:56:48;9.30;;;5.00;;
75016;SDS011;63577;39.766;2.720;2023-07-31T04:59:14;10.50;;;5.10;;
75016;SDS011;63577;39.766;2.720;2023-07-31T05:01:39;8.80;;;4.60;;
75016;SDS011;63577;39.766;2.720;2023-07-31T05:04:04;11.10;;;5.20;;
75016;SDS011;63577;39.766;2.720;2023-07-31T05:06:30;9.00;;;5.10;;
75016;SDS011;63577;39.766;2.720;2023-07-31T05:08:55;8.50;;;5.70;;
75016;SDS011;63577;39.766;2.720;2023-07-31T05:11:20;8.30;;;5.30;;
75016;SDS011;63577;39.766;2.720;2023-07-31T05:13:46;11.40;;;6.10;;
75016;SDS011;63577;39.766;2.720;2023-07-31T05:16:11;9.10;;;5.80;;
75016;SDS011;63577;39.766;2.720;2023-07-31T05:18:36;13.40;;;5.60;;
75016;SDS011;63577;39.766;2.720;2023-07-31T05:21:02;9.20;;;4.30;;
75016;SDS011;63577;39.766;2.720;2023-07-31T05:23:27;14.40;;;5.40;;
75016;SDS011;63577;39.766;2.720;2023-07-31T05:25:53;9.20;;;4.80;;
75016;SDS011;63577;39.766;2.720;2023-07-31T05:28:18;9.60;;;4.70;;
75016;SDS011;63577;39.766;2.720;2023-07-31T05:30:43;11.20;;;5.00;;
75016;SDS011;63577;39.766;2.720;2023-07-31T05:33:09;9.40;;;4.50;;
75016;SDS011;63577;39.766;2.720;2023-07-31T05:35:34;9.00;;;4.80;;
75016;SDS011;63577;39.766;2.720;2023-07-31T05:37:59;7.80;;;4.80;;
75016;SDS011;63577;39.766;2.720;2023-07-31T05:40:25;11.80;;;5.40;;
75016;SDS011;63577;39.766;2.720;2023-07-31T05:42:50;9.90;;;5.50;;
75016;SDS011;63577;39.766;2.720;2023-07-31T05:45:15;7.60;;;4.90;;
75016;SDS011;63577;39.766;2.720;2023-07-31T05:47:41;9.20;;;6.30;;
75016;SDS011;63577;39.766;2.720;2023-07-31T05:50:06;9.60;;;6.00;;
75016;SDS011;63577;39.766;2.720;2023-07-31T05:52:31;10.70;;;5.70;;
75016;SDS011;63577;39.766;2.720;2023-07-31T05:54:57;11.80;;;6.30;;
75016;SDS011;63577;39.766;2.720;2023-07-31T05:57:22;10.20;;;5.50;;
75016;SDS011;63577;39.766;2.720;2023-07-31T05:59:47;12.80;;;6.00;;
75016;SDS011;63577;39.766;2.720;2023-07-31T06:02:13;10.40;;;5.90;;
75016;SDS011;63577;39.766;2.720;2023-07-31T06:04:38;12.00;;;5.80;;
75016;SDS011;63577;39.766;2.720;2023-07-31T06:07:04;12.10;;;5.80;;
75016;SDS011;63577;39.766;2.720;2023-07-31T06:09:30;12.90;;;6.60;;
75016;SDS011;63577;39.766;2.720;2023-07-31T06:11:55;11.90;;;6.70;;
75016;SDS011;63577;39.766;2.720;2023-07-31T06:14:20;10.00;;;6.00;;
75016;SDS011;63577;39.766;2.720;2023-07-31T06:16:45;12.80;;;6.30;;
75016;SDS011;63577;39.766;2.720;2023-07-31T06:19:11;12.10;;;6.80;;
75016;SDS011;63577;39.766;2.720;2023-07-31T06:21:36;9.50;;;6.40;;
75016;SDS011;63577;39.766;2.720;2023-07-31T06:24:03;11.70;;;6.60;;
75016;SDS011;63577;39.766;2.720;2023-07-31T06:26:28;9.60;;;5.60;;
75016;SDS011;63577;39.766;2.720;2023-07-31T06:28:53;10.00;;;5.50;;
75016;SDS011;63577;39.766;2.720;2023-07-31T06:31:19;11.80;;;5.70;;
75016;SDS011;63577;39.766;2.720;2023-07-31T06:33:48;9.70;;;5.80;;
75016;SDS011;63577;39.766;2.720;2023-07-31T06:36:13;11.60;;;5.80;;
75016;SDS011;63577;39.766;2.720;2023-07-31T06:38:38;10.20;;;5.80;;
75016;SDS011;63577;39.766;2.720;2023-07-31T06:41:04;12.40;;;6.30;;
75016;SDS011;63577;39.766;2.720;2023-07-31T06:43:29;12.10;;;6.10;;
75016;SDS011;63577;39.766;2.720;2023-07-31T06:45:54;8.50;;;5.40;;
75016;SDS011;63577;39.766;2.720;2023-07-31T06:48:20;10.00;;;5.10;;
75016;SDS011;63577;39.766;2.720;2023-07-31T06:50:45;12.20;;;6.60;;
75016;SDS011;63577;39.766;2.720;2023-07-31T06:53:10;10.40;;;6.50;;
75016;SDS011;63577;39.766;2.720;2023-07-31T06:55:36;8.90;;;6.10;;
75016;SDS011;63577;39.766;2.720;2023-07-31T06:58:01;9.20;;;6.10;;
75016;SDS011;63577;39.766;2.720;2023-07-31T07:00:26;8.10;;;5.70;;
75016;SDS011;63577;39.766;2.720;2023-07-31T07:02:52;11.20;;;6.10;;
75016;SDS011;63577;39.766;2.720;2023-07-31T07:05:17;10.10;;;5.90;;
75016;SDS011;63577;39.766;2.720;2023-07-31T07:07:43;10.80;;;5.60;;
75016;SDS011;63577;39.766;2.720;2023-07-31T07:10:09;10.80;;;6.50;;
75016;SDS011;63577;39.766;2.720;2023-07-31T07:12:34;11.90;;;6.00;;
75016;SDS011;63577;39.766;2.720;2023-07-31T07:15:00;13.30;;;6.50;;
75016;SDS011;63577;39.766;2.720;2023-07-31T07:17:27;11.20;;;6.10;;
75016;SDS011;63577;39.766;2.720;2023-07-31T07:19:52;12.70;;;5.90;;
75016;SDS011;63577;39.766;2.720;2023-07-31T07:22:18;12.30;;;5.90;;
75016;SDS011;63577;39.766;2.720;2023-07-31T07:24:43;9.00;;;5.20;;
75016;SDS011;63577;39.766;2.720;2023-07-31T07:27:08;11.20;;;6.80;;
75016;SDS011;63577;39.766;2.720;2023-07-31T07:29:34;11.90;;;5.80;;
75016;SDS011;63577;39.766;2.720;2023-07-31T07:32:00;11.70;;;5.60;;
75016;SDS011;63577;39.766;2.720;2023-07-31T07:34:26;10.70;;;5.70;;
75016;SDS011;63577;39.766;2.720;2023-07-31T07:36:51;11.20;;;5.70;;
75016;SDS011;63577;39.766;2.720;2023-07-31T07:39:16;11.70;;;7.10;;
75016;SDS011;63577;39.766;2.720;2023-07-31T07:41:42;16.20;;;8.70;;
75016;SDS011;63577;39.766;2.720;2023-07-31T07:44:07;10.50;;;6.30;;
75016;SDS011;63577;39.766;2.720;2023-07-31T07:46:33;11.20;;;6.00;;
75016;SDS011;63577;39.766;2.720;2023-07-31T07:48:58;9.00;;;5.20;;
75016;SDS011;63577;39.766;2.720;2023-07-31T07:51:23;8.30;;;5.10;;
75016;SDS011;63577;39.766;2.720;2023-07-31T07:53:49;8.80;;;4.70;;
75016;SDS011;63577;39.766;2.720;2023-07-31T07:56:14;11.40;;;4.30;;
75016;SDS011;63577;39.766;2.720;2023-07-31T07:58:39;10.00;;;5.00;;
75016;SDS011;63577;39.766;2.720;2023-07-31T08:01:05;10.70;;;5.30;;
75016;SDS011;63577;39.766;2.720;2023-07-31T08:03:30;8.70;;;4.10;;
75016;SDS011;63577;39.766;2.720;2023-07-31T08:05:59;11.10;;;5.30;;
75016;SDS011;63577;39.766;2.720;2023-07-31T08:08:25;11.60;;;5.80;;
75016;SDS011;63577;39.766;2.720;2023-07-31T08:10:50;10.30;;;5.60;;
75016;SDS011;63577;39.766;2.720;2023-07-31T08:13:16;7.90;;;4.90;;
75016;SDS011;63577;39.766;2.720;2023-07-31T08:15:41;9.00;;;4.50;;
75016;SDS011;63577;39.766;2.720;2023-07-31T08:18:07;10.40;;;5.40;;
75016;SDS011;63577;39.766;2.720;2023-07-31T08:20:33;11.50;;;5.00;;
75016;SDS011;63577;39.766;2.720;2023-07-31T08:22:58;9.20;;;5.40;;
75016;SDS011;63577;39.766;2.720;2023-07-31T08:25:23;9.40;;;4.70;;
75016;SDS011;63577;39.766;2.720;2023-07-31T08:27:49;8.20;;;5.20;;
75016;SDS011;63577;39.766;2.720;2023-07-31T08:30:14;7.60;;;4.80;;
75016;SDS011;63577;39.766;2.720;2023-07-31T08:32:39;10.30;;;5.30;;
75016;SDS011;63577;39.766;2.720;2023-07-31T08:35:05;9.30;;;5.00;;
75016;SDS011;63577;39.766;2.720;2023-07-31T08:37:30;9.70;;;4.30;;
75016;SDS011;63577;39.766;2.720;2023-07-31T08:39:56;10.10;;;4.30;;
75016;SDS011;63577;39.766;2.720;2023-07-31T08:42:21;8.20;;;4.40;;
75016;SDS011;63577;39.766;2.720;2023-07-31T08:44:46;9.30;;;4.60;;
75016;SDS011;63577;39.766;2.720;2023-07-31T08:47:13;8.40;;;4.00;;
75016;SDS011;63577;39.766;2.720;2023-07-31T08:49:38;7.80;;;4.20;;
75016;SDS011;63577;39.766;2.720;2023-07-31T08:52:05;7.80;;;4.40;;
75016;SDS011;63577;39.766;2.720;2023-07-31T08:54:31;10.00;;;4.70;;
75016;SDS011;63577;39.766;2.720;2023-07-31T08:56:58;8.50;;;4.70;;
75016;SDS011;63577;39.766;2.720;2023-07-31T08:59:25;11.30;;;4.60;;
75016;SDS011;63577;39.766;2.720;2023-07-31T09:01:53;10.10;;;4.80;;
75016;SDS011;63577;39.766;2.720;2023-07-31T09:04:19;8.00;;;4.40;;
75016;SDS011;63577;39.766;2.720;2023-07-31T09:06:45;8.60;;;4.90;;
75016;SDS011;63577;39.766;2.720;2023-07-31T09:09:11;10.70;;;4.40;;
75016;SDS011;63577;39.766;2.720;2023-07-31T09:11:37;11.30;;;4.40;;
75016;SDS011;63577;39.766;2.720;2023-07-31T09:14:02;8.40;;;4.30;;
75016;SDS011;63577;39.766;2.720;2023-07-31T09:16:33;9.60;;;4.60;;
75016;SDS011;63577;39.766;2.720;2023-07-31T09:18:59;8.80;;;4.40;;
75016;SDS011;63577;39.766;2.720;2023-07-31T09:21:27;11.50;;;4.10;;
75016;SDS011;63577;39.766;2.720;2023-07-31T09:23:53;7.80;;;4.20;;
75016;SDS011;63577;39.766;2.720;2023-07-31T09:26:31;8.90;;;4.60;;
75016;SDS011;63577;39.766;2.720;2023-07-31T09:29:00;10.30;;;4.60;;
75016;SDS011;63577;39.766;2.720;2023-07-31T09:31:42;9.80;;;4.60;;
75016;SDS011;63577;39.766;2.720;2023-07-31T09:34:07;9.00;;;4.60;;
75016;SDS011;63577;39.766;2.720;2023-07-31T09:36:39;8.70;;;4.00;;
75016;SDS011;63577;39.766;2.720;2023-07-31T09:39:04;10.60;;;4.50;;
75016;SDS011;63577;39.766;2.720;2023-07-31T09:41:30;9.80;;;4.70;;
75016;SDS011;63577;39.766;2.720;2023-07-31T09:43:56;9.90;;;4.40;;
75016;SDS011;63577;39.766;2.720;2023-07-31T09:46:21;12.80;;;4.80;;
75016;SDS011;63577;39.766;2.720;2023-07-31T09:48:47;8.20;;;4.20;;
75016;SDS011;63577;39.766;2.720;2023-07-31T09:51:12;8.70;;;4.40;;
75016;SDS011;63577;39.766;2.720;2023-07-31T09:53:38;9.20;;;4.50;;
75016;SDS011;63577;39.766;2.720;2023-07-31T09:56:03;7.60;;;5.00;;
75016;SDS011;63577;39.766;2.720;2023-07-31T09:58:29;9.40;;;5.40;;
75016;SDS011;63577;39.766;2.720;2023-07-31T10:00:55;8.90;;;5.20;;
75016;SDS011;63577;39.766;2.720;2023-07-31T10:03:22;7.80;;;4.90;;
75016;SDS011;63577;39.766;2.720;2023-07-31T10:05:50;8.10;;;4.70;;
75016;SDS011;63577;39.766;2.720;2023-07-31T10:08:20;7.20;;;4.70;;
75016;SDS011;63577;39.766;2.720;2023-07-31T10:10:46;10.60;;;5.10;;
75016;SDS011;63577;39.766;2.720;2023-07-31T10:13:12;7.40;;;4.10;;
75016;SDS011;63577;39.766;2.720;2023-07-31T10:15:38;8.00;;;4.30;;
75016;SDS011;63577;39.766;2.720;2023-07-31T10:18:05;10.80;;;4.00;;
75016;SDS011;63577;39.766;2.720;2023-07-31T10:20:31;8.90;;;3.90;;
75016;SDS011;63577;39.766;2.720;2023-07-31T10:22:56;9.50;;;4.00;;
75016;SDS011;63577;39.766;2.720;2023-07-31T10:25:22;9.20;;;4.30;;
75016;SDS011;63577;39.766;2.720;2023-07-31T10:27:47;9.80;;;3.70;;
75016;SDS011;63577;39.766;2.720;2023-07-31T10:30:14;7.30;;;3.80;;
75016;SDS011;63577;39.766;2.720;2023-07-31T10:32:41;9.00;;;4.00;;
75016;SDS011;63577;39.766;2.720;2023-07-31T10:35:07;8.60;;;4.50;;
75016;SDS011;63577;39.766;2.720;2023-07-31T10:37:37;8.60;;;4.40;;
75016;SDS011;63577;39.766;2.720;2023-07-31T10:40:03;9.60;;;4.60;;
75016;SDS011;63577;39.766;2.720;2023-07-31T10:42:30;7.90;;;4.20;;
75016;SDS011;63577;39.766;2.720;2023-07-31T10:44:57;11.70;;;3.90;;
75016;SDS011;63577;39.766;2.720;2023-07-31T10:47:23;9.50;;;4.80;;
75016;SDS011;63577;39.766;2.720;2023-07-31T10:49:48;10.60;;;4.30;;
75016;SDS011;63577;39.766;2.720;2023-07-31T10:52:15;11.80;;;4.80;;
75016;SDS011;63577;39.766;2.720;2023-07-31T10:54:44;6.80;;;3.90;;
75016;SDS011;63577;39.766;2.720;2023-07-31T10:57:20;8.90;;;4.20;;
75016;SDS011;63577;39.766;2.720;2023-07-31T10:59:46;7.90;;;4.50;;
75016;SDS011;63577;39.766;2.720;2023-07-31T11:02:23;8.30;;;4.00;;
75016;SDS011;63577;39.766;2.720;2023-07-31T11:05:11;7.60;;;4.50;;
75016;SDS011;63577;39.766;2.720;2023-07-31T11:07:49;10.60;;;4.30;;
75016;SDS011;63577;39.766;2.720;2023-07-31T11:10:17;9.30;;;3.80;;
75016;SDS011;63577;39.766;2.720;2023-07-31T11:12:44;8.40;;;3.80;;
75016;SDS011;63577;39.766;2.720;2023-07-31T11:15:10;8.60;;;4.10;;
75016;SDS011;63577;39.766;2.720;2023-07-31T11:17:40;7.80;;;3.90;;
75016;SDS011;63577;39.766;2.720;2023-07-31T11:20:06;9.60;;;4.00;;
75016;SDS011;63577;39.766;2.720;2023-07-31T11:22:32;8.00;;;4.10;;
75016;SDS011;63577;39.766;2.720;2023-07-31T11:24:58;9.00;;;4.40;;
75016;SDS011;63577;39.766;2.720;2023-07-31T11:27:27;11.30;;;4.30;;
75016;SDS011;63577;39.766;2.720;2023-07-31T11:29:52;7.20;;;3.80;;
75016;SDS011;63577;39.766;2.720;2023-07-31T11:32:17;6.70;;;3.60;;
75016;SDS011;63577;39.766;2.720;2023-07-31T11:34:50;11.70;;;4.80;;
75016;SDS011;63577;39.766;2.720;2023-07-31T11:37:16;7.20;;;3.80;;
75016;SDS011;63577;39.766;2.720;2023-07-31T11:39:41;10.00;;;4.20;;
75016;SDS011;63577;39.766;2.720;2023-07-31T11:42:06;6.90;;;3.60;;
75016;SDS011;63577;39.766;2.720;2023-07-31T11:44:39;10.90;;;3.70;;
75016;SDS011;63577;39.766;2.720;2023-07-31T11:47:06;8.90;;;4.30;;
75016;SDS011;63577;39.766;2.720;2023-07-31T11:49:31;8.50;;;3.90;;
75016;SDS011;63577;39.766;2.720;2023-07-31T11:51:57;8.40;;;4.00;;
75016;SDS011;63577;39.766;2.720;2023-07-31T11:54:22;10.10;;;4.10;;
75016;SDS011;63577;39.766;2.720;2023-07-31T11:56:48;8.20;;;3.60;;
75016;SDS011;63577;39.766;2.720;2023-07-31T11:59:14;8.00;;;3.80;;
75016;SDS011;63577;39.766;2.720;2023-07-31T12:01:40;7.20;;;4.30;;
75016;SDS011;63577;39.766;2.720;2023-07-31T12:04:05;8.40;;;3.80;;
75016;SDS011;63577;39.766;2.720;2023-07-31T12:06:32;9.50;;;4.60;;
75016;SDS011;63577;39.766;2.720;2023-07-31T12:09:04;8.90;;;4.00;;
75016;SDS011;63577;39.766;2.720;2023-07-31T12:11:30;6.10;;;3.50;;
75016;SDS011;63577;39.766;2.720;2023-07-31T12:13:55;9.10;;;3.80;;
75016;SDS011;63577;39.766;2.720;2023-07-31T12:16:20;9.00;;;3.90;;
75016;SDS011;63577;39.766;2.720;2023-07-31T12:18:50;9.30;;;3.60;;
75016;SDS011;63577;39.766;2.720;2023-07-31T12:21:16;9.60;;;4.20;;
75016;SDS011;63577;39.766;2.720;2023-07-31T12:23:43;8.70;;;4.10;;
75016;SDS011;63577;39.766;2.720;2023-07-31T12:26:12;10.40;;;4.10;;
75016;SDS011;63577;39.766;2.720;2023-07-31T12:31:03;6.50;;;3.90;;
75016;SDS011;63577;39.766;2.720;2023-07-31T12:33:32;8.00;;;4.00;;
75016;SDS011;63577;39.766;2.720;2023-07-31T12:35:59;9.30;;;3.70;;
75016;SDS011;63577;39.766;2.720;2023-07-31T12:38:25;8.70;;;4.00;;
75016;SDS011;63577;39.766;2.720;2023-07-31T12:40:50;10.20;;;4.10;;
75016;SDS011;63577;39.766;2.720;2023-07-31T12:43:15;9.20;;;3.90;;
75016;SDS011;63577;39.766;2.720;2023-07-31T12:45:41;9.10;;;4.10;;
75016;SDS011;63577;39.766;2.720;2023-07-31T12:48:06;12.70;;;4.30;;
75016;SDS011;63577;39.766;2.720;2023-07-31T12:50:31;8.00;;;4.10;;
75016;SDS011;63577;39.766;2.720;2023-07-31T12:52:57;9.70;;;4.40;;
75016;SDS011;63577;39.766;2.720;2023-07-31T12:55:22;10.70;;;4.70;;
75016;SDS011;63577;39.766;2.720;2023-07-31T12:57:49;9.40;;;4.10;;
75016;SDS011;63577;39.766;2.720;2023-07-31T13:00:14;9.20;;;4.10;;
75016;SDS011;63577;39.766;2.720;2023-07-31T13:02:39;11.00;;;4.50;;
75016;SDS011;63577;39.766;2.720;2023-07-31T13:05:05;10.50;;;4.90;;
75016;SDS011;63577;39.766;2.720;2023-07-31T13:07:31;10.00;;;4.60;;
75016;SDS011;63577;39.766;2.720;2023-07-31T13:09:56;10.10;;;3.50;;
75016;SDS011;63577;39.766;2.720;2023-07-31T13:12:21;9.30;;;4.50;;
75016;SDS011;63577;39.766;2.720;2023-07-31T13:14:47;7.80;;;3.40;;
75016;SDS011;63577;39.766;2.720;2023-07-31T13:17:12;9.10;;;3.70;;
75016;SDS011;63577;39.766;2.720;2023-07-31T13:19:37;8.60;;;3.70;;
75016;SDS011;63577;39.766;2.720;2023-07-31T13:22:03;7.60;;;3.30;;
75016;SDS011;63577;39.766;2.720;2023-07-31T13:24:29;8.00;;;4.10;;
75016;SDS011;63577;39.766;2.720;2023-07-31T13:26:55;9.40;;;3.90;;
75016;SDS011;63577;39.766;2.720;2023-07-31T13:29:20;8.10;;;3.60;;
75016;SDS011;63577;39.766;2.720;2023-07-31T13:31:47;8.10;;;3.80;;
75016;SDS011;63577;39.766;2.720;2023-07-31T13:34:12;8.20;;;3.60;;
75016;SDS011;63577;39.766;2.720;2023-07-31T13:36:38;7.80;;;3.70;;
75016;SDS011;63577;39.766;2.720;2023-07-31T13:39:03;8.00;;;3.40;;
75016;SDS011;63577;39.766;2.720;2023-07-31T13:41:28;10.60;;;3.50;;
75016;SDS011;63577;39.766;2.720;2023-07-31T13:43:54;10.80;;;4.00;;
75016;SDS011;63577;39.766;2.720;2023-07-31T13:46:19;10.00;;;3.70;;
75016;SDS011;63577;39.766;2.720;2023-07-31T13:48:44;9.60;;;3.90;;
75016;SDS011;63577;39.766;2.720;2023-07-31T13:51:10;8.10;;;3.40;;
75016;SDS011;63577;39.766;2.720;2023-07-31T13:53:35;8.20;;;3.40;;
75016;SDS011;63577;39.766;2.720;2023-07-31T13:56:00;7.60;;;3.40;;
75016;SDS011;63577;39.766;2.720;2023-07-31T13:58:26;11.80;;;4.30;;
75016;SDS011;63577;39.766;2.720;2023-07-31T14:00:51;9.10;;;3.90;;
75016;SDS011;63577;39.766;2.720;2023-07-31T14:03:16;8.70;;;3.50;;
75016;SDS011;63577;39.766;2.720;2023-07-31T14:05:42;9.70;;;3.40;;
75016;SDS011;63577;39.766;2.720;2023-07-31T14:08:07;6.90;;;3.10;;
75016;SDS011;63577;39.766;2.720;2023-07-31T14:10:32;8.30;;;3.10;;
75016;SDS011;63577;39.766;2.720;2023-07-31T14:12:58;10.90;;;3.80;;
75016;SDS011;63577;39.766;2.720;2023-07-31T14:15:23;7.10;;;3.60;;
75016;SDS011;63577;39.766;2.720;2023-07-31T14:17:48;8.70;;;3.40;;
75016;SDS011;63577;39.766;2.720;2023-07-31T14:20:14;8.10;;;3.60;;
75016;SDS011;63577;39.766;2.720;2023-07-31T14:22:40;7.80;;;3.00;;
75016;SDS011;63577;39.766;2.720;2023-07-31T14:25:05;8.20;;;3.80;;
75016;SDS011;63577;39.766;2.720;2023-07-31T14:27:31;8.10;;;3.30;;
75016;SDS011;63577;39.766;2.720;2023-07-31T14:29:56;9.70;;;3.30;;
75016;SDS011;63577;39.766;2.720;2023-07-31T14:32:22;9.40;;;3.20;;
75016;SDS011;63577;39.766;2.720;2023-07-31T14:34:48;8.00;;;3.50;;
75016;SDS011;63577;39.766;2.720;2023-07-31T14:37:14;7.90;;;3.60;;
75016;SDS011;63577;39.766;2.720;2023-07-31T14:39:39;11.00;;;3.70;;
75016;SDS011;63577;39.766;2.720;2023-07-31T14:42:04;7.00;;;3.50;;
75016;SDS011;63577;39.766;2.720;2023-07-31T14:44:30;8.70;;;3.60;;